sensor_id;sensor_type;location;lat;lon;timestamp;P1;durP1;ratioP1;P2;durP2;ratioP2
24635;SDS011;12772;49.794;10.024;2022-08-25T00:03:50;7.45;;;6.72;;
24635;SDS011;12772;49.794;10.024;2022-08-25T00:07:53;7.10;;;6.50;;
24635;SDS011;12772;49.794;10.024;2022-08-25T00:11:55;7.30;;;5.82;;
24635;SDS011;12772;49.794;10.024;2022-08-25T00:15:58;7.00;;;6.30;;
24635;SDS011;12772;49.794;10.024;2022-08-25T00:20:00;7.28;;;6.68;;
24635;SDS011;12772;49.794;10.024;2022-08-25T00:24:03;7.18;;;6.57;;
24635;SDS011;12772;49.794;10.024;2022-08-25T00:28:05;7.72;;;7.03;;
24635;SDS011;12772;49.794;10.024;2022-08-25T00:32:07;8.07;;;6.28;;
24635;SDS011;12772;49.794;10.024;2022-08-25T00:36:09;6.82;;;6.28;;
24635;SDS011;12772;49.794;10.024;2022-08-25T00:40:11;8.20;;;7.03;;
24635;SDS011;12772;49.794;10.024;2022-08-25T00:44:14;8.60;;;6.65;;
24635;SDS011;12772;49.794;10.024;2022-08-25T00:48:18;6.40;;;5.80;;
24635;SDS011;12772;49.794;10.024;2022-08-25T00:52:21;7.30;;;6.45;;
24635;SDS011;12772;49.794;10.024;2022-08-25T00:56:28;6.63;;;6.03;;
24635;SDS011;12772;49.794;10.024;2022-08-25T01:00:32;7.00;;;6.35;;
24635;SDS011;12772;49.794;10.024;2022-08-25T01:04:37;6.93;;;6.38;;
24635;SDS011;12772;49.794;10.024;2022-08-25T01:08:39;6.75;;;6.15;;
24635;SDS011;12772;49.794;10.024;2022-08-25T01:12:42;7.88;;;7.28;;
24635;SDS011;12772;49.794;10.024;2022-08-25T01:16:44;7.03;;;6.32;;
24635;SDS011;12772;49.794;10.024;2022-08-25T01:20:48;7.03;;;6.53;;
24635;SDS011;12772;49.794;10.024;2022-08-25T01:24:58;7.55;;;6.68;;
24635;SDS011;12772;49.794;10.024;2022-08-25T01:29:06;7.78;;;7.15;;
24635;SDS011;12772;49.794;10.024;2022-08-25T01:33:21;7.22;;;6.63;;
24635;SDS011;12772;49.794;10.024;2022-08-25T01:37:23;7.80;;;7.20;;
24635;SDS011;12772;49.794;10.024;2022-08-25T01:45:31;7.95;;;7.22;;
24635;SDS011;12772;49.794;10.024;2022-08-25T01:49:34;8.40;;;7.63;;
24635;SDS011;12772;49.794;10.024;2022-08-25T01:53:36;8.07;;;7.35;;
24635;SDS011;12772;49.794;10.024;2022-08-25T01:57:38;8.70;;;7.90;;
24635;SDS011;12772;49.794;10.024;2022-08-25T02:01:40;8.13;;;7.38;;
24635;SDS011;12772;49.794;10.024;2022-08-25T02:05:43;9.00;;;8.10;;
24635;SDS011;12772;49.794;10.024;2022-08-25T02:09:45;8.45;;;7.75;;
24635;SDS011;12772;49.794;10.024;2022-08-25T02:13:47;7.88;;;7.15;;
24635;SDS011;12772;49.794;10.024;2022-08-25T02:17:50;8.13;;;7.38;;
24635;SDS011;12772;49.794;10.024;2022-08-25T02:21:52;8.40;;;7.63;;
24635;SDS011;12772;49.794;10.024;2022-08-25T02:25:55;8.77;;;7.95;;
24635;SDS011;12772;49.794;10.024;2022-08-25T02:29:58;9.52;;;8.63;;
24635;SDS011;12772;49.794;10.024;2022-08-25T02:34:00;8.07;;;7.35;;
24635;SDS011;12772;49.794;10.024;2022-08-25T02:38:03;8.20;;;7.50;;
24635;SDS011;12772;49.794;10.024;2022-08-25T02:42:05;8.77;;;7.97;;
24635;SDS011;12772;49.794;10.024;2022-08-25T02:46:08;8.07;;;7.38;;
24635;SDS011;12772;49.794;10.024;2022-08-25T02:50:11;8.77;;;7.80;;
24635;SDS011;12772;49.794;10.024;2022-08-25T02:54:14;8.82;;;7.75;;
24635;SDS011;12772;49.794;10.024;2022-08-25T02:58:16;9.98;;;7.82;;
24635;SDS011;12772;49.794;10.024;2022-08-25T03:02:18;9.07;;;8.18;;
24635;SDS011;12772;49.794;10.024;2022-08-25T03:06:21;7.43;;;6.78;;
24635;SDS011;12772;49.794;10.024;2022-08-25T03:10:23;11.05;;;8.10;;
24635;SDS011;12772;49.794;10.024;2022-08-25T03:14:26;9.20;;;8.32;;
24635;SDS011;12772;49.794;10.024;2022-08-25T03:18:28;9.50;;;8.70;;
24635;SDS011;12772;49.794;10.024;2022-08-25T03:22:31;8.50;;;7.60;;
24635;SDS011;12772;49.794;10.024;2022-08-25T03:26:33;11.55;;;8.95;;
24635;SDS011;12772;49.794;10.024;2022-08-25T03:30:53;8.85;;;8.07;;
24635;SDS011;12772;49.794;10.024;2022-08-25T03:34:55;8.50;;;7.70;;
24635;SDS011;12772;49.794;10.024;2022-08-25T03:38:57;9.02;;;8.32;;
24635;SDS011;12772;49.794;10.024;2022-08-25T03:42:59;8.82;;;7.85;;
24635;SDS011;12772;49.794;10.024;2022-08-25T03:47:01;10.20;;;8.05;;
24635;SDS011;12772;49.794;10.024;2022-08-25T03:51:03;9.75;;;8.80;;
24635;SDS011;12772;49.794;10.024;2022-08-25T03:55:07;8.82;;;8.02;;
24635;SDS011;12772;49.794;10.024;2022-08-25T03:59:10;8.48;;;7.78;;
24635;SDS011;12772;49.794;10.024;2022-08-25T04:03:12;8.85;;;8.05;;
24635;SDS011;12772;49.794;10.024;2022-08-25T04:07:15;8.63;;;7.78;;
24635;SDS011;12772;49.794;10.024;2022-08-25T04:11:18;8.85;;;8.02;;
24635;SDS011;12772;49.794;10.024;2022-08-25T04:15:22;9.18;;;8.27;;
24635;SDS011;12772;49.794;10.024;2022-08-25T04:19:24;8.50;;;7.70;;
24635;SDS011;12772;49.794;10.024;2022-08-25T04:23:27;8.43;;;7.63;;
24635;SDS011;12772;49.794;10.024;2022-08-25T04:27:29;9.82;;;8.93;;
24635;SDS011;12772;49.794;10.024;2022-08-25T04:31:31;11.48;;;8.73;;
24635;SDS011;12772;49.794;10.024;2022-08-25T04:35:34;8.77;;;7.88;;
24635;SDS011;12772;49.794;10.024;2022-08-25T04:39:36;8.27;;;7.43;;
24635;SDS011;12772;49.794;10.024;2022-08-25T04:43:39;9.25;;;8.45;;
24635;SDS011;12772;49.794;10.024;2022-08-25T04:47:42;9.48;;;8.57;;
24635;SDS011;12772;49.794;10.024;2022-08-25T04:51:45;8.57;;;7.78;;
24635;SDS011;12772;49.794;10.024;2022-08-25T04:55:47;9.25;;;8.23;;
24635;SDS011;12772;49.794;10.024;2022-08-25T04:59:49;11.40;;;8.90;;
24635;SDS011;12772;49.794;10.024;2022-08-25T05:03:53;10.45;;;9.45;;
24635;SDS011;12772;49.794;10.024;2022-08-25T05:07:57;12.32;;;11.13;;
24635;SDS011;12772;49.794;10.024;2022-08-25T05:12:00;12.95;;;11.45;;
24635;SDS011;12772;49.794;10.024;2022-08-25T05:16:02;10.30;;;9.40;;
24635;SDS011;12772;49.794;10.024;2022-08-25T05:20:05;12.50;;;11.25;;
24635;SDS011;12772;49.794;10.024;2022-08-25T05:24:07;17.27;;;11.55;;
24635;SDS011;12772;49.794;10.024;2022-08-25T05:28:10;13.07;;;10.73;;
24635;SDS011;12772;49.794;10.024;2022-08-25T05:32:13;11.48;;;10.15;;
24635;SDS011;12772;49.794;10.024;2022-08-25T05:36:15;10.95;;;9.85;;
24635;SDS011;12772;49.794;10.024;2022-08-25T05:40:19;10.20;;;9.30;;
24635;SDS011;12772;49.794;10.024;2022-08-25T05:44:21;11.45;;;10.35;;
24635;SDS011;12772;49.794;10.024;2022-08-25T05:48:23;12.20;;;10.98;;
24635;SDS011;12772;49.794;10.024;2022-08-25T05:52:27;11.98;;;10.68;;
24635;SDS011;12772;49.794;10.024;2022-08-25T05:56:29;11.38;;;9.98;;
24635;SDS011;12772;49.794;10.024;2022-08-25T06:00:31;10.38;;;9.43;;
24635;SDS011;12772;49.794;10.024;2022-08-25T06:04:33;10.20;;;9.18;;
24635;SDS011;12772;49.794;10.024;2022-08-25T06:08:35;10.88;;;9.90;;
24635;SDS011;12772;49.794;10.024;2022-08-25T06:12:38;14.02;;;11.23;;
24635;SDS011;12772;49.794;10.024;2022-08-25T06:16:43;11.40;;;10.30;;
24635;SDS011;12772;49.794;10.024;2022-08-25T06:20:48;11.23;;;10.00;;
24635;SDS011;12772;49.794;10.024;2022-08-25T06:24:50;12.00;;;10.95;;
24635;SDS011;12772;49.794;10.024;2022-08-25T06:28:52;16.63;;;12.55;;
24635;SDS011;12772;49.794;10.024;2022-08-25T06:32:54;12.48;;;11.18;;
24635;SDS011;12772;49.794;10.024;2022-08-25T06:36:56;14.10;;;10.82;;
24635;SDS011;12772;49.794;10.024;2022-08-25T06:41:05;12.40;;;11.20;;
24635;SDS011;12772;49.794;10.024;2022-08-25T06:45:09;10.88;;;9.88;;
24635;SDS011;12772;49.794;10.024;2022-08-25T06:49:12;11.07;;;9.98;;
24635;SDS011;12772;49.794;10.024;2022-08-25T06:53:14;11.25;;;10.18;;
24635;SDS011;12772;49.794;10.024;2022-08-25T06:57:19;9.45;;;8.65;;
24635;SDS011;12772;49.794;10.024;2022-08-25T07:01:23;10.88;;;9.90;;
24635;SDS011;12772;49.794;10.024;2022-08-25T07:05:27;13.02;;;11.82;;
24635;SDS011;12772;49.794;10.024;2022-08-25T07:09:30;11.38;;;10.20;;
24635;SDS011;12772;49.794;10.024;2022-08-25T07:13:32;13.10;;;10.65;;
24635;SDS011;12772;49.794;10.024;2022-08-25T07:17:34;11.57;;;10.55;;
24635;SDS011;12772;49.794;10.024;2022-08-25T07:21:37;11.05;;;9.95;;
24635;SDS011;12772;49.794;10.024;2022-08-25T07:25:41;16.10;;;10.85;;
24635;SDS011;12772;49.794;10.024;2022-08-25T07:29:43;12.07;;;10.43;;
24635;SDS011;12772;49.794;10.024;2022-08-25T07:33:45;12.43;;;11.25;;
24635;SDS011;12772;49.794;10.024;2022-08-25T07:38:01;12.57;;;9.63;;
24635;SDS011;12772;49.794;10.024;2022-08-25T07:42:05;11.57;;;10.48;;
24635;SDS011;12772;49.794;10.024;2022-08-25T07:46:08;11.05;;;9.95;;
24635;SDS011;12772;49.794;10.024;2022-08-25T07:50:11;11.43;;;10.43;;
24635;SDS011;12772;49.794;10.024;2022-08-25T07:54:13;11.48;;;10.48;;
24635;SDS011;12772;49.794;10.024;2022-08-25T07:58:15;11.15;;;10.15;;
24635;SDS011;12772;49.794;10.024;2022-08-25T08:02:18;11.07;;;10.07;;
24635;SDS011;12772;49.794;10.024;2022-08-25T08:06:21;10.93;;;9.82;;
24635;SDS011;12772;49.794;10.024;2022-08-25T08:10:24;12.05;;;10.93;;
24635;SDS011;12772;49.794;10.024;2022-08-25T08:14:27;10.57;;;9.55;;
24635;SDS011;12772;49.794;10.024;2022-08-25T08:18:29;11.70;;;10.55;;
24635;SDS011;12772;49.794;10.024;2022-08-25T08:22:31;10.15;;;9.18;;
24635;SDS011;12772;49.794;10.024;2022-08-25T08:26:33;9.95;;;9.00;;
24635;SDS011;12772;49.794;10.024;2022-08-25T08:30:35;10.05;;;9.25;;
24635;SDS011;12772;49.794;10.024;2022-08-25T08:34:38;9.57;;;8.77;;
24635;SDS011;12772;49.794;10.024;2022-08-25T08:38:41;9.93;;;8.93;;
24635;SDS011;12772;49.794;10.024;2022-08-25T08:42:55;8.77;;;7.97;;
24635;SDS011;12772;49.794;10.024;2022-08-25T08:59:40;8.60;;;7.90;;
24635;SDS011;12772;49.794;10.024;2022-08-25T09:08:21;8.35;;;7.65;;
24635;SDS011;12772;49.794;10.024;2022-08-25T09:12:30;8.15;;;7.45;;
24635;SDS011;12772;49.794;10.024;2022-08-25T09:30:16;7.47;;;6.68;;
24635;SDS011;12772;49.794;10.024;2022-08-25T09:34:21;7.15;;;6.55;;
24635;SDS011;12772;49.794;10.024;2022-08-25T09:38:25;8.00;;;7.38;;
24635;SDS011;12772;49.794;10.024;2022-08-25T09:42:47;12.18;;;7.13;;
24635;SDS011;12772;49.794;10.024;2022-08-25T09:46:55;7.43;;;6.82;;
24635;SDS011;12772;49.794;10.024;2022-08-25T09:51:01;7.60;;;6.30;;
24635;SDS011;12772;49.794;10.024;2022-08-25T09:55:25;6.90;;;6.30;;
24635;SDS011;12772;49.794;10.024;2022-08-25T09:59:32;7.05;;;6.45;;
24635;SDS011;12772;49.794;10.024;2022-08-25T10:03:36;7.80;;;7.05;;
24635;SDS011;12772;49.794;10.024;2022-08-25T10:07:39;6.47;;;5.88;;
24635;SDS011;12772;49.794;10.024;2022-08-25T10:11:51;6.68;;;6.18;;
24635;SDS011;12772;49.794;10.024;2022-08-25T10:16:03;6.55;;;6.00;;
24635;SDS011;12772;49.794;10.024;2022-08-25T10:24:11;7.22;;;6.57;;
24635;SDS011;12772;49.794;10.024;2022-08-25T10:28:17;7.25;;;6.70;;
24635;SDS011;12772;49.794;10.024;2022-08-25T10:32:40;6.40;;;5.80;;
24635;SDS011;12772;49.794;10.024;2022-08-25T10:45:48;6.90;;;6.30;;
24635;SDS011;12772;49.794;10.024;2022-08-25T10:49:58;6.88;;;6.18;;
24635;SDS011;12772;49.794;10.024;2022-08-25T11:03:04;5.88;;;5.38;;
24635;SDS011;12772;49.794;10.024;2022-08-25T11:07:42;6.00;;;5.55;;
24635;SDS011;12772;49.794;10.024;2022-08-25T11:11:56;6.25;;;5.75;;
24635;SDS011;12772;49.794;10.024;2022-08-25T11:16:02;6.28;;;5.88;;
24635;SDS011;12772;49.794;10.024;2022-08-25T11:20:13;7.40;;;5.35;;
24635;SDS011;12772;49.794;10.024;2022-08-25T11:28:58;6.30;;;5.80;;
24635;SDS011;12772;49.794;10.024;2022-08-25T11:33:05;8.25;;;5.70;;
24635;SDS011;12772;49.794;10.024;2022-08-25T11:37:13;6.30;;;4.90;;
24635;SDS011;12772;49.794;10.024;2022-08-25T11:45:43;7.38;;;4.82;;
24635;SDS011;12772;49.794;10.024;2022-08-25T11:49:56;6.95;;;5.10;;
24635;SDS011;12772;49.794;10.024;2022-08-25T11:54:10;5.38;;;4.88;;
24635;SDS011;12772;49.794;10.024;2022-08-25T11:58:40;5.15;;;4.18;;
24635;SDS011;12772;49.794;10.024;2022-08-25T12:11:08;5.03;;;4.63;;
24635;SDS011;12772;49.794;10.024;2022-08-25T12:24:03;6.68;;;5.50;;
24635;SDS011;12772;49.794;10.024;2022-08-25T12:28:26;5.38;;;4.97;;
24635;SDS011;12772;49.794;10.024;2022-08-25T12:37:13;5.53;;;4.88;;
24635;SDS011;12772;49.794;10.024;2022-08-25T12:41:22;5.07;;;4.68;;
24635;SDS011;12772;49.794;10.024;2022-08-25T12:45:31;5.25;;;4.78;;
24635;SDS011;12772;49.794;10.024;2022-08-25T12:49:42;5.57;;;5.07;;
24635;SDS011;12772;49.794;10.024;2022-08-25T12:58:18;5.13;;;4.72;;
24635;SDS011;12772;49.794;10.024;2022-08-25T13:06:51;4.97;;;4.57;;
24635;SDS011;12772;49.794;10.024;2022-08-25T13:11:08;5.00;;;4.65;;
24635;SDS011;12772;49.794;10.024;2022-08-25T13:15:32;4.97;;;4.55;;
24635;SDS011;12772;49.794;10.024;2022-08-25T13:24:39;4.97;;;4.55;;
24635;SDS011;12772;49.794;10.024;2022-08-25T13:28:43;4.95;;;4.55;;
24635;SDS011;12772;49.794;10.024;2022-08-25T13:33:15;5.07;;;4.57;;
24635;SDS011;12772;49.794;10.024;2022-08-25T13:37:22;6.35;;;4.78;;
24635;SDS011;12772;49.794;10.024;2022-08-25T13:41:32;5.70;;;5.20;;
24635;SDS011;12772;49.794;10.024;2022-08-25T13:45:52;5.00;;;4.63;;
24635;SDS011;12772;49.794;10.024;2022-08-25T13:49:54;5.18;;;4.82;;
24635;SDS011;12772;49.794;10.024;2022-08-25T13:58:40;4.90;;;4.50;;
24635;SDS011;12772;49.794;10.024;2022-08-25T14:02:45;5.35;;;4.22;;
24635;SDS011;12772;49.794;10.024;2022-08-25T14:07:05;5.63;;;5.13;;
24635;SDS011;12772;49.794;10.024;2022-08-25T14:16:21;5.20;;;4.70;;
24635;SDS011;12772;49.794;10.024;2022-08-25T14:20:25;5.95;;;5.40;;
24635;SDS011;12772;49.794;10.024;2022-08-25T14:24:30;6.53;;;5.70;;
24635;SDS011;12772;49.794;10.024;2022-08-25T14:28:35;6.93;;;5.57;;
24635;SDS011;12772;49.794;10.024;2022-08-25T14:32:39;5.20;;;4.70;;
24635;SDS011;12772;49.794;10.024;2022-08-25T14:36:41;6.07;;;5.00;;
24635;SDS011;12772;49.794;10.024;2022-08-25T14:40:45;6.28;;;5.00;;
24635;SDS011;12772;49.794;10.024;2022-08-25T14:44:49;5.22;;;4.72;;
24635;SDS011;12772;49.794;10.024;2022-08-25T14:48:57;5.90;;;5.00;;
24635;SDS011;12772;49.794;10.024;2022-08-25T14:53:01;5.53;;;5.00;;
24635;SDS011;12772;49.794;10.024;2022-08-25T14:57:03;6.13;;;5.40;;
24635;SDS011;12772;49.794;10.024;2022-08-25T15:01:05;5.60;;;5.10;;
24635;SDS011;12772;49.794;10.024;2022-08-25T15:05:08;5.25;;;4.82;;
24635;SDS011;12772;49.794;10.024;2022-08-25T15:09:12;6.72;;;4.32;;
24635;SDS011;12772;49.794;10.024;2022-08-25T15:13:17;5.18;;;4.70;;
24635;SDS011;12772;49.794;10.024;2022-08-25T15:17:20;7.18;;;5.00;;
24635;SDS011;12772;49.794;10.024;2022-08-25T15:21:22;6.60;;;5.00;;
24635;SDS011;12772;49.794;10.024;2022-08-25T15:25:24;5.18;;;4.78;;
24635;SDS011;12772;49.794;10.024;2022-08-25T15:29:28;6.55;;;4.90;;
24635;SDS011;12772;49.794;10.024;2022-08-25T15:33:31;6.22;;;5.63;;
24635;SDS011;12772;49.794;10.024;2022-08-25T15:37:33;6.63;;;6.13;;
24635;SDS011;12772;49.794;10.024;2022-08-25T15:41:36;7.13;;;6.03;;
24635;SDS011;12772;49.794;10.024;2022-08-25T15:45:38;6.22;;;5.72;;
24635;SDS011;12772;49.794;10.024;2022-08-25T15:49:40;8.73;;;6.53;;
24635;SDS011;12772;49.794;10.024;2022-08-25T15:53:43;7.47;;;6.13;;
24635;SDS011;12772;49.794;10.024;2022-08-25T15:57:46;6.88;;;6.30;;
24635;SDS011;12772;49.794;10.024;2022-08-25T16:01:48;9.00;;;5.82;;
24635;SDS011;12772;49.794;10.024;2022-08-25T16:05:52;6.85;;;5.95;;
24635;SDS011;12772;49.794;10.024;2022-08-25T16:09:55;6.70;;;6.05;;
24635;SDS011;12772;49.794;10.024;2022-08-25T16:13:57;7.13;;;5.18;;
24635;SDS011;12772;49.794;10.024;2022-08-25T16:17:59;6.22;;;5.40;;
24635;SDS011;12772;49.794;10.024;2022-08-25T16:22:02;5.22;;;4.93;;
24635;SDS011;12772;49.794;10.024;2022-08-25T16:26:05;6.10;;;5.65;;
24635;SDS011;12772;49.794;10.024;2022-08-25T16:30:10;5.93;;;5.47;;
24635;SDS011;12772;49.794;10.024;2022-08-25T16:34:12;7.82;;;5.78;;
24635;SDS011;12772;49.794;10.024;2022-08-25T16:38:15;6.57;;;5.07;;
24635;SDS011;12772;49.794;10.024;2022-08-25T16:42:17;6.53;;;5.80;;
24635;SDS011;12772;49.794;10.024;2022-08-25T16:46:19;8.25;;;6.10;;
24635;SDS011;12772;49.794;10.024;2022-08-25T16:50:22;6.28;;;5.38;;
24635;SDS011;12772;49.794;10.024;2022-08-25T16:54:24;6.90;;;5.57;;
24635;SDS011;12772;49.794;10.024;2022-08-25T16:58:44;6.13;;;5.53;;
24635;SDS011;12772;49.794;10.024;2022-08-25T17:02:46;5.85;;;5.35;;
24635;SDS011;12772;49.794;10.024;2022-08-25T17:06:48;6.38;;;5.78;;
24635;SDS011;12772;49.794;10.024;2022-08-25T17:10:50;6.30;;;5.70;;
24635;SDS011;12772;49.794;10.024;2022-08-25T17:14:52;5.32;;;4.88;;
24635;SDS011;12772;49.794;10.024;2022-08-25T17:18:55;6.40;;;5.80;;
24635;SDS011;12772;49.794;10.024;2022-08-25T17:23:00;6.38;;;5.78;;
24635;SDS011;12772;49.794;10.024;2022-08-25T17:27:02;6.43;;;5.82;;
24635;SDS011;12772;49.794;10.024;2022-08-25T17:31:04;6.05;;;5.53;;
24635;SDS011;12772;49.794;10.024;2022-08-25T17:35:07;5.90;;;5.13;;
24635;SDS011;12772;49.794;10.024;2022-08-25T17:39:11;5.47;;;4.97;;
24635;SDS011;12772;49.794;10.024;2022-08-25T17:43:14;7.78;;;5.22;;
24635;SDS011;12772;49.794;10.024;2022-08-25T17:47:16;9.15;;;5.30;;
24635;SDS011;12772;49.794;10.024;2022-08-25T17:51:19;5.88;;;5.38;;
24635;SDS011;12772;49.794;10.024;2022-08-25T17:55:24;5.55;;;5.05;;
24635;SDS011;12772;49.794;10.024;2022-08-25T17:59:27;8.68;;;5.70;;
24635;SDS011;12772;49.794;10.024;2022-08-25T18:03:30;5.72;;;5.13;;
24635;SDS011;12772;49.794;10.024;2022-08-25T18:07:32;4.88;;;4.47;;
24635;SDS011;12772;49.794;10.024;2022-08-25T18:11:35;5.70;;;5.20;;
24635;SDS011;12772;49.794;10.024;2022-08-25T18:15:38;5.43;;;5.03;;
24635;SDS011;12772;49.794;10.024;2022-08-25T18:19:41;4.97;;;4.57;;
24635;SDS011;12772;49.794;10.024;2022-08-25T18:23:43;8.88;;;6.30;;
24635;SDS011;12772;49.794;10.024;2022-08-25T18:27:46;8.65;;;7.80;;
24635;SDS011;12772;49.794;10.024;2022-08-25T18:31:48;11.48;;;7.60;;
24635;SDS011;12772;49.794;10.024;2022-08-25T18:35:51;8.30;;;7.40;;
24635;SDS011;12772;49.794;10.024;2022-08-25T18:39:53;8.38;;;7.57;;
24635;SDS011;12772;49.794;10.024;2022-08-25T18:44:13;8.57;;;7.20;;
24635;SDS011;12772;49.794;10.024;2022-08-25T18:48:16;6.90;;;6.28;;
24635;SDS011;12772;49.794;10.024;2022-08-25T18:52:19;6.68;;;6.18;;
24635;SDS011;12772;49.794;10.024;2022-08-25T18:56:23;6.30;;;5.72;;
24635;SDS011;12772;49.794;10.024;2022-08-25T19:00:26;7.43;;;6.65;;
24635;SDS011;12772;49.794;10.024;2022-08-25T19:04:30;9.10;;;7.60;;
24635;SDS011;12772;49.794;10.024;2022-08-25T19:08:32;9.63;;;7.55;;
24635;SDS011;12772;49.794;10.024;2022-08-25T19:12:35;6.60;;;5.85;;
24635;SDS011;12772;49.794;10.024;2022-08-25T19:16:39;6.80;;;6.13;;
24635;SDS011;12772;49.794;10.024;2022-08-25T19:20:42;8.38;;;5.28;;
24635;SDS011;12772;49.794;10.024;2022-08-25T19:24:45;7.03;;;5.72;;
24635;SDS011;12772;49.794;10.024;2022-08-25T19:28:48;10.02;;;6.00;;
24635;SDS011;12772;49.794;10.024;2022-08-25T19:32:52;12.05;;;6.82;;
24635;SDS011;12772;49.794;10.024;2022-08-25T19:36:55;18.30;;;7.18;;
24635;SDS011;12772;49.794;10.024;2022-08-25T19:40:58;14.40;;;7.03;;
24635;SDS011;12772;49.794;10.024;2022-08-25T19:45:01;16.83;;;8.80;;
24635;SDS011;12772;49.794;10.024;2022-08-25T19:49:23;19.10;;;9.30;;
24635;SDS011;12772;49.794;10.024;2022-08-25T19:53:27;18.88;;;9.48;;
24635;SDS011;12772;49.794;10.024;2022-08-25T19:57:30;14.43;;;7.90;;
24635;SDS011;12772;49.794;10.024;2022-08-25T20:01:32;18.02;;;8.25;;
24635;SDS011;12772;49.794;10.024;2022-08-25T20:05:36;14.93;;;7.40;;
24635;SDS011;12772;49.794;10.024;2022-08-25T20:09:38;10.50;;;6.93;;
24635;SDS011;12772;49.794;10.024;2022-08-25T20:13:41;14.82;;;6.82;;
24635;SDS011;12772;49.794;10.024;2022-08-25T20:17:43;13.50;;;6.55;;
24635;SDS011;12772;49.794;10.024;2022-08-25T20:21:45;8.52;;;6.43;;
24635;SDS011;12772;49.794;10.024;2022-08-25T20:25:47;10.00;;;6.03;;
24635;SDS011;12772;49.794;10.024;2022-08-25T20:29:50;7.22;;;5.85;;
24635;SDS011;12772;49.794;10.024;2022-08-25T20:33:52;8.02;;;6.30;;
24635;SDS011;12772;49.794;10.024;2022-08-25T20:37:55;9.15;;;6.65;;
24635;SDS011;12772;49.794;10.024;2022-08-25T20:41:58;7.63;;;5.57;;
24635;SDS011;12772;49.794;10.024;2022-08-25T20:46:02;9.25;;;5.30;;
24635;SDS011;12772;49.794;10.024;2022-08-25T20:50:05;9.05;;;6.18;;
24635;SDS011;12772;49.794;10.024;2022-08-25T20:54:10;11.07;;;6.05;;
24635;SDS011;12772;49.794;10.024;2022-08-25T20:58:13;6.80;;;5.68;;
24635;SDS011;12772;49.794;10.024;2022-08-25T21:02:16;9.00;;;6.03;;
24635;SDS011;12772;49.794;10.024;2022-08-25T21:06:18;6.80;;;5.38;;
24635;SDS011;12772;49.794;10.024;2022-08-25T21:10:20;7.85;;;5.55;;
24635;SDS011;12772;49.794;10.024;2022-08-25T21:14:22;7.40;;;6.22;;
24635;SDS011;12772;49.794;10.024;2022-08-25T21:18:25;6.97;;;6.00;;
24635;SDS011;12772;49.794;10.024;2022-08-25T21:22:32;7.20;;;5.47;;
24635;SDS011;12772;49.794;10.024;2022-08-25T21:26:38;7.53;;;5.50;;
24635;SDS011;12772;49.794;10.024;2022-08-25T21:30:40;6.88;;;5.70;;
24635;SDS011;12772;49.794;10.024;2022-08-25T21:34:43;6.88;;;5.20;;
24635;SDS011;12772;49.794;10.024;2022-08-25T21:38:46;7.57;;;5.43;;
24635;SDS011;12772;49.794;10.024;2022-08-25T21:42:48;8.80;;;5.72;;
24635;SDS011;12772;49.794;10.024;2022-08-25T21:46:50;6.63;;;5.80;;
24635;SDS011;12772;49.794;10.024;2022-08-25T21:51:05;9.63;;;6.38;;
24635;SDS011;12772;49.794;10.024;2022-08-25T21:55:09;5.80;;;5.13;;
24635;SDS011;12772;49.794;10.024;2022-08-25T21:59:12;8.90;;;6.03;;
24635;SDS011;12772;49.794;10.024;2022-08-25T22:03:18;8.32;;;5.40;;
24635;SDS011;12772;49.794;10.024;2022-08-25T22:07:20;8.27;;;5.95;;
24635;SDS011;12772;49.794;10.024;2022-08-25T22:11:23;7.10;;;5.57;;
24635;SDS011;12772;49.794;10.024;2022-08-25T22:15:26;9.57;;;6.30;;
24635;SDS011;12772;49.794;10.024;2022-08-25T22:19:28;7.22;;;5.78;;
24635;SDS011;12772;49.794;10.024;2022-08-25T22:23:30;9.45;;;6.07;;
24635;SDS011;12772;49.794;10.024;2022-08-25T22:27:34;11.13;;;6.10;;
24635;SDS011;12772;49.794;10.024;2022-08-25T22:31:36;11.20;;;5.88;;
24635;SDS011;12772;49.794;10.024;2022-08-25T22:35:38;7.35;;;5.93;;
24635;SDS011;12772;49.794;10.024;2022-08-25T22:39:40;7.85;;;6.00;;
24635;SDS011;12772;49.794;10.024;2022-08-25T22:43:44;7.60;;;6.30;;
24635;SDS011;12772;49.794;10.024;2022-08-25T22:47:48;8.38;;;6.00;;
24635;SDS011;12772;49.794;10.024;2022-08-25T22:51:51;8.13;;;5.72;;
24635;SDS011;12772;49.794;10.024;2022-08-25T22:55:53;7.75;;;6.22;;
24635;SDS011;12772;49.794;10.024;2022-08-25T22:59:55;7.70;;;5.85;;
24635;SDS011;12772;49.794;10.024;2022-08-25T23:04:01;6.15;;;5.30;;
24635;SDS011;12772;49.794;10.024;2022-08-25T23:08:04;6.13;;;5.53;;
24635;SDS011;12772;49.794;10.024;2022-08-25T23:12:07;8.27;;;6.20;;
24635;SDS011;12772;49.794;10.024;2022-08-25T23:16:09;10.00;;;6.05;;
24635;SDS011;12772;49.794;10.024;2022-08-25T23:20:12;8.80;;;6.15;;
24635;SDS011;12772;49.794;10.024;2022-08-25T23:24:32;7.18;;;5.65;;
24635;SDS011;12772;49.794;10.024;2022-08-25T23:28:34;9.30;;;6.55;;
24635;SDS011;12772;49.794;10.024;2022-08-25T23:32:36;9.73;;;6.38;;
24635;SDS011;12772;49.794;10.024;2022-08-25T23:36:38;7.78;;;5.82;;
24635;SDS011;12772;49.794;10.024;2022-08-25T23:40:41;6.93;;;6.25;;
24635;SDS011;12772;49.794;10.024;2022-08-25T23:44:44;8.07;;;6.55;;
24635;SDS011;12772;49.794;10.024;2022-08-25T23:48:46;9.07;;;6.40;;
24635;SDS011;12772;49.794;10.024;2022-08-25T23:52:49;7.00;;;6.20;;
24635;SDS011;12772;49.794;10.024;2022-08-25T23:56:52;11.63;;;6.72;;
